<?xml version="1.0" encoding="UTF-8" standalone="no" ?>
<gpx xmlns="http://www.topografix.com/GPX/1/1" creator="MapSource 6.15.7" version="1.1" xmlns:xsi="http://www.w3.org/2001/XMLSchema-instance" xsi:schemaLocation="http://www.topografix.com/GPX/1/1 http://www.topografix.com/GPX/1/1/gpx.xsd">

  <metadata>
    <link href="http://www.garmin.com">
      <text>Garmin International</text>
    </link>
    <time>2010-07-01T02:42:42Z</time>
    <bounds maxlat="57.9784401" maxlon="56.1876223" minlat="57.9182353" minlon="55.9091810"/>
  </metadata>

  <wpt lat="57.9295214" lon="55.9137043">
    <ele>124.1350098</ele>
    <name>ФЕДОТОВО</name>
    <cmt>30-ИЮН-10 19:57:06</cmt>
    <desc>30-ИЮН-10 19:57:06</desc>
    <sym>Parachute Area</sym>
    <extensions>
      <gpxx:WaypointExtension xmlns:gpxx="http://www.garmin.com/xmlschemas/GpxExtensions/v3">
        <gpxx:DisplayMode>SymbolAndName</gpxx:DisplayMode>
      </gpxx:WaypointExtension>
    </extensions>
  </wpt>

  <trk>
    <name>ACTIVE LOG</name>
    <extensions>
      <gpxx:TrackExtension xmlns:gpxx="http://www.garmin.com/xmlschemas/GpxExtensions/v3">
        <gpxx:DisplayColor>Magenta</gpxx:DisplayColor>
      </gpxx:TrackExtension>
    </extensions>
    <trkseg>
      <trkpt lat="57.9292172" lon="55.9139923">
        <ele>134.7219238</ele>
        <time>2010-06-30T15:28:46Z</time>
      </trkpt>
      <trkpt lat="57.9291649" lon="55.9139012">
        <ele>130.3959961</ele>
        <time>2010-06-30T15:29:12Z</time>
      </trkpt>
      <trkpt lat="57.9291066" lon="55.9137761">
        <ele>126.5506592</ele>
        <time>2010-06-30T15:29:29Z</time>
      </trkpt>
      <trkpt lat="57.9290467" lon="55.9136472">
        <ele>124.6280518</ele>
        <time>2010-06-30T15:29:44Z</time>
      </trkpt>
      <trkpt lat="57.9289160" lon="55.9135419">
        <ele>117.4182129</ele>
        <time>2010-06-30T15:30:11Z</time>
      </trkpt>
      <trkpt lat="57.9287353" lon="55.9133458">
        <ele>118.3793945</ele>
        <time>2010-06-30T15:30:50Z</time>
      </trkpt>
      <trkpt lat="57.9287004" lon="55.9132938">
        <ele>119.8214111</ele>
        <time>2010-06-30T15:30:57Z</time>
      </trkpt>
      <trkpt lat="57.9286685" lon="55.9132523">
        <ele>117.8988037</ele>
        <time>2010-06-30T15:31:02Z</time>
      </trkpt>
      <trkpt lat="57.9286115" lon="55.9131323">
        <ele>117.8988037</ele>
        <time>2010-06-30T15:31:18Z</time>
      </trkpt>
      <trkpt lat="57.9286705" lon="55.9128329">
        <ele>116.9375000</ele>
        <time>2010-06-30T15:31:28Z</time>
      </trkpt>
      <trkpt lat="57.9286622" lon="55.9125842">
        <ele>116.9375000</ele>
        <time>2010-06-30T15:31:35Z</time>
      </trkpt>
      <trkpt lat="57.9286022" lon="55.9124426">
        <ele>116.9375000</ele>
        <time>2010-06-30T15:31:40Z</time>
      </trkpt>
      <trkpt lat="57.9283637" lon="55.9122171">
        <ele>121.2635498</ele>
        <time>2010-06-30T15:31:48Z</time>
      </trkpt>
      <trkpt lat="57.9281673" lon="55.9118833">
        <ele>125.1087646</ele>
        <time>2010-06-30T15:31:54Z</time>
      </trkpt>
      <trkpt lat="57.9278540" lon="55.9114905">
        <ele>128.4733887</ele>
        <time>2010-06-30T15:32:03Z</time>
      </trkpt>
      <trkpt lat="57.9277196" lon="55.9112426">
        <ele>130.3959961</ele>
        <time>2010-06-30T15:32:09Z</time>
      </trkpt>
      <trkpt lat="57.9276612" lon="55.9109000">
        <ele>127.9925537</ele>
        <time>2010-06-30T15:32:14Z</time>
      </trkpt>
      <trkpt lat="57.9275640" lon="55.9102955">
        <ele>124.1473389</ele>
        <time>2010-06-30T15:32:23Z</time>
      </trkpt>
      <trkpt lat="57.9273900" lon="55.9101606">
        <ele>127.5119629</ele>
        <time>2010-06-30T15:32:29Z</time>
      </trkpt>
      <trkpt lat="57.9272753" lon="55.9101090">
        <ele>126.5506592</ele>
        <time>2010-06-30T15:32:32Z</time>
      </trkpt>
      <trkpt lat="57.9269905" lon="55.9099994">
        <ele>127.0313721</ele>
        <time>2010-06-30T15:32:39Z</time>
      </trkpt>
      <trkpt lat="57.9267898" lon="55.9100072">
        <ele>126.5506592</ele>
        <time>2010-06-30T15:32:44Z</time>
      </trkpt>
      <trkpt lat="57.9264496" lon="55.9099156">
        <ele>124.1473389</ele>
        <time>2010-06-30T15:32:51Z</time>
      </trkpt>
      <trkpt lat="57.9262129" lon="55.9098137">
        <ele>125.5893555</ele>
        <time>2010-06-30T15:32:56Z</time>
      </trkpt>
      <trkpt lat="57.9258045" lon="55.9097229">
        <ele>127.0313721</ele>
        <time>2010-06-30T15:33:04Z</time>
      </trkpt>
      <trkpt lat="57.9255955" lon="55.9096459">
        <ele>130.8767090</ele>
        <time>2010-06-30T15:33:09Z</time>
      </trkpt>
      <trkpt lat="57.9252664" lon="55.9095845">
        <ele>131.3572998</ele>
        <time>2010-06-30T15:33:15Z</time>
      </trkpt>
      <trkpt lat="57.9248039" lon="55.9094865">
        <ele>131.8378906</ele>
        <time>2010-06-30T15:33:22Z</time>
      </trkpt>
      <trkpt lat="57.9242091" lon="55.9093156">
        <ele>134.7219238</ele>
        <time>2010-06-30T15:33:30Z</time>
      </trkpt>
      <trkpt lat="57.9240026" lon="55.9092510">
        <ele>135.6831055</ele>
        <time>2010-06-30T15:33:34Z</time>
      </trkpt>
      <trkpt lat="57.9238537" lon="55.9092144">
        <ele>135.2025146</ele>
        <time>2010-06-30T15:33:38Z</time>
      </trkpt>
      <trkpt lat="57.9237042" lon="55.9091810">
        <ele>137.1252441</ele>
        <time>2010-06-30T15:33:43Z</time>
      </trkpt>
      <trkpt lat="57.9236542" lon="55.9092392">
        <ele>136.1639404</ele>
        <time>2010-06-30T15:33:45Z</time>
      </trkpt>
      <trkpt lat="57.9235766" lon="55.9097662">
        <ele>134.2412109</ele>
        <time>2010-06-30T15:33:50Z</time>
      </trkpt>
      <trkpt lat="57.9234700" lon="55.9105863">
        <ele>132.7993164</ele>
        <time>2010-06-30T15:33:54Z</time>
      </trkpt>
      <trkpt lat="57.9233175" lon="55.9118299">
        <ele>130.3959961</ele>
        <time>2010-06-30T15:33:59Z</time>
      </trkpt>
      <trkpt lat="57.9230996" lon="55.9138451">
        <ele>127.9925537</ele>
        <time>2010-06-30T15:34:06Z</time>
      </trkpt>
      <trkpt lat="57.9227853" lon="55.9164969">
        <ele>127.0313721</ele>
        <time>2010-06-30T15:34:15Z</time>
      </trkpt>
      <trkpt lat="57.9225437" lon="55.9188909">
        <ele>118.3793945</ele>
        <time>2010-06-30T15:34:23Z</time>
      </trkpt>
      <trkpt lat="57.9222144" lon="55.9216881">
        <ele>111.1695557</ele>
        <time>2010-06-30T15:34:32Z</time>
      </trkpt>
      <trkpt lat="57.9219438" lon="55.9237316">
        <ele>111.6502686</ele>
        <time>2010-06-30T15:34:39Z</time>
      </trkpt>
      <trkpt lat="57.9216785" lon="55.9253466">
        <ele>114.5341797</ele>
        <time>2010-06-30T15:34:45Z</time>
      </trkpt>
      <trkpt lat="57.9215703" lon="55.9258462">
        <ele>113.5729980</ele>
        <time>2010-06-30T15:34:47Z</time>
      </trkpt>
      <trkpt lat="57.9211942" lon="55.9266292">
        <ele>118.8601074</ele>
        <time>2010-06-30T15:34:51Z</time>
      </trkpt>
      <trkpt lat="57.9201641" lon="55.9279233">
        <ele>130.3959961</ele>
        <time>2010-06-30T15:35:00Z</time>
      </trkpt>
      <trkpt lat="57.9194610" lon="55.9286631">
        <ele>133.2799072</ele>
        <time>2010-06-30T15:35:06Z</time>
      </trkpt>
      <trkpt lat="57.9187659" lon="55.9296828">
        <ele>134.7219238</ele>
        <time>2010-06-30T15:35:12Z</time>
      </trkpt>
      <trkpt lat="57.9183757" lon="55.9305985">
        <ele>135.2025146</ele>
        <time>2010-06-30T15:35:16Z</time>
      </trkpt>
      <trkpt lat="57.9182353" lon="55.9316573">
        <ele>137.1252441</ele>
        <time>2010-06-30T15:35:20Z</time>
      </trkpt>
      <trkpt lat="57.9184094" lon="55.9323847">
        <ele>135.2025146</ele>
        <time>2010-06-30T15:35:23Z</time>
      </trkpt>
      <trkpt lat="57.9185084" lon="55.9326197">
        <ele>135.2025146</ele>
        <time>2010-06-30T15:35:24Z</time>
      </trkpt>
      <trkpt lat="57.9193992" lon="55.9345330">
        <ele>140.4898682</ele>
        <time>2010-06-30T15:35:32Z</time>
      </trkpt>
      <trkpt lat="57.9200602" lon="55.9360963">
        <ele>143.8543701</ele>
        <time>2010-06-30T15:35:38Z</time>
      </trkpt>
      <trkpt lat="57.9202057" lon="55.9366933">
        <ele>142.4124756</ele>
        <time>2010-06-30T15:35:40Z</time>
      </trkpt>
      <trkpt lat="57.9202762" lon="55.9380168">
        <ele>138.5672607</ele>
        <time>2010-06-30T15:35:44Z</time>
      </trkpt>
      <trkpt lat="57.9202409" lon="55.9383552">
        <ele>137.6058350</ele>
        <time>2010-06-30T15:35:45Z</time>
      </trkpt>
      <trkpt lat="57.9199450" lon="55.9408813">
        <ele>134.7219238</ele>
        <time>2010-06-30T15:35:52Z</time>
      </trkpt>
      <trkpt lat="57.9195695" lon="55.9443127">
        <ele>133.7604980</ele>
        <time>2010-06-30T15:36:01Z</time>
      </trkpt>
      <trkpt lat="57.9195345" lon="55.9446941">
        <ele>133.7604980</ele>
        <time>2010-06-30T15:36:02Z</time>
      </trkpt>
      <trkpt lat="57.9196444" lon="55.9461471">
        <ele>133.7604980</ele>
        <time>2010-06-30T15:36:06Z</time>
      </trkpt>
      <trkpt lat="57.9199906" lon="55.9485804">
        <ele>131.3572998</ele>
        <time>2010-06-30T15:36:13Z</time>
      </trkpt>
      <trkpt lat="57.9203992" lon="55.9516841">
        <ele>130.8767090</ele>
        <time>2010-06-30T15:36:22Z</time>
      </trkpt>
      <trkpt lat="57.9209021" lon="55.9552938">
        <ele>127.5119629</ele>
        <time>2010-06-30T15:36:32Z</time>
      </trkpt>
      <trkpt lat="57.9213506" lon="55.9577504">
        <ele>129.4346924</ele>
        <time>2010-06-30T15:36:39Z</time>
      </trkpt>
      <trkpt lat="57.9217625" lon="55.9589572">
        <ele>130.3959961</ele>
        <time>2010-06-30T15:36:43Z</time>
      </trkpt>
      <trkpt lat="57.9226495" lon="55.9613623">
        <ele>131.3572998</ele>
        <time>2010-06-30T15:36:51Z</time>
      </trkpt>
      <trkpt lat="57.9233735" lon="55.9634875">
        <ele>131.3572998</ele>
        <time>2010-06-30T15:36:58Z</time>
      </trkpt>
      <trkpt lat="57.9236551" lon="55.9648770">
        <ele>130.3959961</ele>
        <time>2010-06-30T15:37:02Z</time>
      </trkpt>
      <trkpt lat="57.9241117" lon="55.9677362">
        <ele>126.5506592</ele>
        <time>2010-06-30T15:37:10Z</time>
      </trkpt>
      <trkpt lat="57.9245109" lon="55.9703377">
        <ele>125.1087646</ele>
        <time>2010-06-30T15:37:17Z</time>
      </trkpt>
      <trkpt lat="57.9250851" lon="55.9736742">
        <ele>121.7441406</ele>
        <time>2010-06-30T15:37:26Z</time>
      </trkpt>
      <trkpt lat="57.9255151" lon="55.9762312">
        <ele>120.7828369</ele>
        <time>2010-06-30T15:37:33Z</time>
      </trkpt>
      <trkpt lat="57.9261158" lon="55.9794610">
        <ele>116.4567871</ele>
        <time>2010-06-30T15:37:42Z</time>
      </trkpt>
      <trkpt lat="57.9266919" lon="55.9824154">
        <ele>113.0922852</ele>
        <time>2010-06-30T15:37:50Z</time>
      </trkpt>
      <trkpt lat="57.9273865" lon="55.9860588">
        <ele>109.2469482</ele>
        <time>2010-06-30T15:38:00Z</time>
      </trkpt>
      <trkpt lat="57.9277721" lon="55.9884067">
        <ele>104.9210205</ele>
        <time>2010-06-30T15:38:07Z</time>
      </trkpt>
      <trkpt lat="57.9278704" lon="55.9900654">
        <ele>105.8824463</ele>
        <time>2010-06-30T15:38:12Z</time>
      </trkpt>
      <trkpt lat="57.9279327" lon="55.9922194">
        <ele>104.9210205</ele>
        <time>2010-06-30T15:38:18Z</time>
      </trkpt>
      <trkpt lat="57.9280296" lon="55.9955259">
        <ele>101.5563965</ele>
        <time>2010-06-30T15:38:27Z</time>
      </trkpt>
      <trkpt lat="57.9280921" lon="55.9979804">
        <ele>100.1145020</ele>
        <time>2010-06-30T15:38:34Z</time>
      </trkpt>
      <trkpt lat="57.9282404" lon="56.0010550">
        <ele>98.1918945</ele>
        <time>2010-06-30T15:38:43Z</time>
      </trkpt>
      <trkpt lat="57.9284643" lon="56.0026904">
        <ele>95.7884521</ele>
        <time>2010-06-30T15:38:48Z</time>
      </trkpt>
      <trkpt lat="57.9288054" lon="56.0045625">
        <ele>95.7884521</ele>
        <time>2010-06-30T15:38:54Z</time>
      </trkpt>
      <trkpt lat="57.9289686" lon="56.0057386">
        <ele>96.2692871</ele>
        <time>2010-06-30T15:38:58Z</time>
      </trkpt>
      <trkpt lat="57.9288656" lon="56.0071364">
        <ele>97.2304688</ele>
        <time>2010-06-30T15:39:03Z</time>
      </trkpt>
      <trkpt lat="57.9285349" lon="56.0087324">
        <ele>102.0371094</ele>
        <time>2010-06-30T15:39:09Z</time>
      </trkpt>
      <trkpt lat="57.9282269" lon="56.0096271">
        <ele>105.4017334</ele>
        <time>2010-06-30T15:39:13Z</time>
      </trkpt>
      <trkpt lat="57.9275917" lon="56.0112207">
        <ele>105.8824463</ele>
        <time>2010-06-30T15:39:20Z</time>
      </trkpt>
      <trkpt lat="57.9270144" lon="56.0127520">
        <ele>108.2856445</ele>
        <time>2010-06-30T15:39:27Z</time>
      </trkpt>
      <trkpt lat="57.9263565" lon="56.0147200">
        <ele>110.2082520</ele>
        <time>2010-06-30T15:39:36Z</time>
      </trkpt>
      <trkpt lat="57.9262505" lon="56.0152816">
        <ele>109.7276611</ele>
        <time>2010-06-30T15:39:39Z</time>
      </trkpt>
      <trkpt lat="57.9261414" lon="56.0155944">
        <ele>110.6888428</ele>
        <time>2010-06-30T15:39:43Z</time>
      </trkpt>
      <trkpt lat="57.9259906" lon="56.0155148">
        <ele>111.6502686</ele>
        <time>2010-06-30T15:39:47Z</time>
      </trkpt>
      <trkpt lat="57.9255836" lon="56.0149423">
        <ele>113.5729980</ele>
        <time>2010-06-30T15:39:52Z</time>
      </trkpt>
      <trkpt lat="57.9250380" lon="56.0141367">
        <ele>113.5729980</ele>
        <time>2010-06-30T15:39:57Z</time>
      </trkpt>
      <trkpt lat="57.9245019" lon="56.0131858">
        <ele>111.1695557</ele>
        <time>2010-06-30T15:40:02Z</time>
      </trkpt>
      <trkpt lat="57.9236859" lon="56.0120433">
        <ele>114.5341797</ele>
        <time>2010-06-30T15:40:09Z</time>
      </trkpt>
      <trkpt lat="57.9233210" lon="56.0115373">
        <ele>116.4567871</ele>
        <time>2010-06-30T15:40:13Z</time>
      </trkpt>
      <trkpt lat="57.9230698" lon="56.0115572">
        <ele>113.0922852</ele>
        <time>2010-06-30T15:40:17Z</time>
      </trkpt>
      <trkpt lat="57.9230535" lon="56.0118366">
        <ele>111.1695557</ele>
        <time>2010-06-30T15:40:19Z</time>
      </trkpt>
      <trkpt lat="57.9231775" lon="56.0120959">
        <ele>111.6502686</ele>
        <time>2010-06-30T15:40:21Z</time>
      </trkpt>
      <trkpt lat="57.9236554" lon="56.0127750">
        <ele>110.6888428</ele>
        <time>2010-06-30T15:40:26Z</time>
      </trkpt>
      <trkpt lat="57.9242682" lon="56.0136013">
        <ele>108.2856445</ele>
        <time>2010-06-30T15:40:31Z</time>
      </trkpt>
      <trkpt lat="57.9249632" lon="56.0143553">
        <ele>106.3630371</ele>
        <time>2010-06-30T15:40:36Z</time>
      </trkpt>
      <trkpt lat="57.9257833" lon="56.0153956">
        <ele>109.2469482</ele>
        <time>2010-06-30T15:40:42Z</time>
      </trkpt>
      <trkpt lat="57.9273951" lon="56.0176070">
        <ele>108.7662354</ele>
        <time>2010-06-30T15:40:54Z</time>
      </trkpt>
      <trkpt lat="57.9289661" lon="56.0198051">
        <ele>103.9597168</ele>
        <time>2010-06-30T15:41:05Z</time>
      </trkpt>
      <trkpt lat="57.9303471" lon="56.0217367">
        <ele>102.9982910</ele>
        <time>2010-06-30T15:41:14Z</time>
      </trkpt>
      <trkpt lat="57.9319677" lon="56.0239776">
        <ele>104.4404297</ele>
        <time>2010-06-30T15:41:24Z</time>
      </trkpt>
      <trkpt lat="57.9334415" lon="56.0260951">
        <ele>105.8824463</ele>
        <time>2010-06-30T15:41:33Z</time>
      </trkpt>
      <trkpt lat="57.9341385" lon="56.0275062">
        <ele>107.3243408</ele>
        <time>2010-06-30T15:41:38Z</time>
      </trkpt>
      <trkpt lat="57.9348690" lon="56.0293904">
        <ele>105.8824463</ele>
        <time>2010-06-30T15:41:44Z</time>
      </trkpt>
      <trkpt lat="57.9353532" lon="56.0311634">
        <ele>103.9597168</ele>
        <time>2010-06-30T15:41:49Z</time>
      </trkpt>
      <trkpt lat="57.9358262" lon="56.0333222">
        <ele>103.9597168</ele>
        <time>2010-06-30T15:41:55Z</time>
      </trkpt>
      <trkpt lat="57.9362335" lon="56.0352535">
        <ele>105.8824463</ele>
        <time>2010-06-30T15:42:01Z</time>
      </trkpt>
      <trkpt lat="57.9365684" lon="56.0369057">
        <ele>105.8824463</ele>
        <time>2010-06-30T15:42:07Z</time>
      </trkpt>
      <trkpt lat="57.9370428" lon="56.0392306">
        <ele>106.8436279</ele>
        <time>2010-06-30T15:42:16Z</time>
      </trkpt>
      <trkpt lat="57.9375492" lon="56.0416926">
        <ele>106.8436279</ele>
        <time>2010-06-30T15:42:26Z</time>
      </trkpt>
      <trkpt lat="57.9378090" lon="56.0429278">
        <ele>108.2856445</ele>
        <time>2010-06-30T15:42:32Z</time>
      </trkpt>
      <trkpt lat="57.9381276" lon="56.0444685">
        <ele>107.8050537</ele>
        <time>2010-06-30T15:42:40Z</time>
      </trkpt>
      <trkpt lat="57.9385372" lon="56.0464280">
        <ele>105.8824463</ele>
        <time>2010-06-30T15:42:50Z</time>
      </trkpt>
      <trkpt lat="57.9387896" lon="56.0476511">
        <ele>105.8824463</ele>
        <time>2010-06-30T15:42:55Z</time>
      </trkpt>
      <trkpt lat="57.9391296" lon="56.0493844">
        <ele>105.4017334</ele>
        <time>2010-06-30T15:43:01Z</time>
      </trkpt>
      <trkpt lat="57.9397010" lon="56.0521528">
        <ele>105.4017334</ele>
        <time>2010-06-30T15:43:10Z</time>
      </trkpt>
      <trkpt lat="57.9400903" lon="56.0541882">
        <ele>107.3243408</ele>
        <time>2010-06-30T15:43:17Z</time>
      </trkpt>
      <trkpt lat="57.9404684" lon="56.0560164">
        <ele>107.3243408</ele>
        <time>2010-06-30T15:43:24Z</time>
      </trkpt>
      <trkpt lat="57.9409005" lon="56.0581288">
        <ele>105.8824463</ele>
        <time>2010-06-30T15:43:32Z</time>
      </trkpt>
      <trkpt lat="57.9414384" lon="56.0607372">
        <ele>106.3630371</ele>
        <time>2010-06-30T15:43:42Z</time>
      </trkpt>
      <trkpt lat="57.9420239" lon="56.0636128">
        <ele>106.8436279</ele>
        <time>2010-06-30T15:43:53Z</time>
      </trkpt>
      <trkpt lat="57.9425000" lon="56.0659148">
        <ele>105.8824463</ele>
        <time>2010-06-30T15:44:02Z</time>
      </trkpt>
      <trkpt lat="57.9429625" lon="56.0681941">
        <ele>105.8824463</ele>
        <time>2010-06-30T15:44:11Z</time>
      </trkpt>
      <trkpt lat="57.9434097" lon="56.0704250">
        <ele>105.4017334</ele>
        <time>2010-06-30T15:44:20Z</time>
      </trkpt>
      <trkpt lat="57.9438696" lon="56.0726361">
        <ele>105.8824463</ele>
        <time>2010-06-30T15:44:29Z</time>
      </trkpt>
      <trkpt lat="57.9442007" lon="56.0739834">
        <ele>106.3630371</ele>
        <time>2010-06-30T15:44:34Z</time>
      </trkpt>
      <trkpt lat="57.9447605" lon="56.0760315">
        <ele>106.8436279</ele>
        <time>2010-06-30T15:44:41Z</time>
      </trkpt>
      <trkpt lat="57.9455321" lon="56.0786543">
        <ele>109.7276611</ele>
        <time>2010-06-30T15:44:50Z</time>
      </trkpt>
      <trkpt lat="57.9462506" lon="56.0812813">
        <ele>110.6888428</ele>
        <time>2010-06-30T15:44:59Z</time>
      </trkpt>
      <trkpt lat="57.9468436" lon="56.0837888">
        <ele>107.3243408</ele>
        <time>2010-06-30T15:45:07Z</time>
      </trkpt>
      <trkpt lat="57.9476024" lon="56.0874995">
        <ele>105.8824463</ele>
        <time>2010-06-30T15:45:18Z</time>
      </trkpt>
      <trkpt lat="57.9483767" lon="56.0912627">
        <ele>107.3243408</ele>
        <time>2010-06-30T15:45:29Z</time>
      </trkpt>
      <trkpt lat="57.9490795" lon="56.0947350">
        <ele>107.8050537</ele>
        <time>2010-06-30T15:45:39Z</time>
      </trkpt>
      <trkpt lat="57.9497122" lon="56.0978524">
        <ele>107.3243408</ele>
        <time>2010-06-30T15:45:48Z</time>
      </trkpt>
      <trkpt lat="57.9506059" lon="56.1020471">
        <ele>105.8824463</ele>
        <time>2010-06-30T15:46:00Z</time>
      </trkpt>
      <trkpt lat="57.9513087" lon="56.1055177">
        <ele>103.9597168</ele>
        <time>2010-06-30T15:46:10Z</time>
      </trkpt>
      <trkpt lat="57.9519345" lon="56.1081618">
        <ele>102.9982910</ele>
        <time>2010-06-30T15:46:18Z</time>
      </trkpt>
      <trkpt lat="57.9526198" lon="56.1106556">
        <ele>103.4790039</ele>
        <time>2010-06-30T15:46:26Z</time>
      </trkpt>
      <trkpt lat="57.9531739" lon="56.1127523">
        <ele>102.5177002</ele>
        <time>2010-06-30T15:46:33Z</time>
      </trkpt>
      <trkpt lat="57.9534809" lon="56.1146665">
        <ele>101.5563965</ele>
        <time>2010-06-30T15:46:39Z</time>
      </trkpt>
      <trkpt lat="57.9537630" lon="56.1174249">
        <ele>103.9597168</ele>
        <time>2010-06-30T15:46:47Z</time>
      </trkpt>
      <trkpt lat="57.9540749" lon="56.1194203">
        <ele>102.5177002</ele>
        <time>2010-06-30T15:46:53Z</time>
      </trkpt>
      <trkpt lat="57.9544607" lon="56.1214234">
        <ele>100.5950928</ele>
        <time>2010-06-30T15:46:59Z</time>
      </trkpt>
      <trkpt lat="57.9549299" lon="56.1230364">
        <ele>100.1145020</ele>
        <time>2010-06-30T15:47:04Z</time>
      </trkpt>
      <trkpt lat="57.9555384" lon="56.1244274">
        <ele>100.5950928</ele>
        <time>2010-06-30T15:47:09Z</time>
      </trkpt>
      <trkpt lat="57.9562340" lon="56.1255825">
        <ele>99.6337891</ele>
        <time>2010-06-30T15:47:14Z</time>
      </trkpt>
      <trkpt lat="57.9572041" lon="56.1269980">
        <ele>98.6724854</ele>
        <time>2010-06-30T15:47:21Z</time>
      </trkpt>
      <trkpt lat="57.9576282" lon="56.1279397">
        <ele>98.1918945</ele>
        <time>2010-06-30T15:47:25Z</time>
      </trkpt>
      <trkpt lat="57.9584669" lon="56.1300618">
        <ele>100.1145020</ele>
        <time>2010-06-30T15:47:33Z</time>
      </trkpt>
      <trkpt lat="57.9595370" lon="56.1329131">
        <ele>100.1145020</ele>
        <time>2010-06-30T15:47:43Z</time>
      </trkpt>
      <trkpt lat="57.9599972" lon="56.1342458">
        <ele>103.4790039</ele>
        <time>2010-06-30T15:47:48Z</time>
      </trkpt>
      <trkpt lat="57.9601741" lon="56.1346796">
        <ele>104.9210205</ele>
        <time>2010-06-30T15:47:50Z</time>
      </trkpt>
      <trkpt lat="57.9606499" lon="56.1353103">
        <ele>106.8436279</ele>
        <time>2010-06-30T15:47:54Z</time>
      </trkpt>
      <trkpt lat="57.9615088" lon="56.1362432">
        <ele>113.5729980</ele>
        <time>2010-06-30T15:48:00Z</time>
      </trkpt>
      <trkpt lat="57.9624553" lon="56.1372709">
        <ele>115.9761963</ele>
        <time>2010-06-30T15:48:06Z</time>
      </trkpt>
      <trkpt lat="57.9631644" lon="56.1382878">
        <ele>115.9761963</ele>
        <time>2010-06-30T15:48:11Z</time>
      </trkpt>
      <trkpt lat="57.9639496" lon="56.1397439">
        <ele>116.9375000</ele>
        <time>2010-06-30T15:48:17Z</time>
      </trkpt>
      <trkpt lat="57.9650446" lon="56.1421630">
        <ele>118.8601074</ele>
        <time>2010-06-30T15:48:26Z</time>
      </trkpt>
      <trkpt lat="57.9659920" lon="56.1444013">
        <ele>119.8214111</ele>
        <time>2010-06-30T15:48:34Z</time>
      </trkpt>
      <trkpt lat="57.9669792" lon="56.1469963">
        <ele>121.7441406</ele>
        <time>2010-06-30T15:48:43Z</time>
      </trkpt>
      <trkpt lat="57.9676602" lon="56.1488706">
        <ele>122.2247314</ele>
        <time>2010-06-30T15:48:50Z</time>
      </trkpt>
      <trkpt lat="57.9678620" lon="56.1494010">
        <ele>122.7054443</ele>
        <time>2010-06-30T15:48:53Z</time>
      </trkpt>
      <trkpt lat="57.9679517" lon="56.1496240">
        <ele>123.1861572</ele>
        <time>2010-06-30T15:48:56Z</time>
      </trkpt>
      <trkpt lat="57.9679576" lon="56.1496498">
        <ele>124.6280518</ele>
        <time>2010-06-30T15:49:00Z</time>
      </trkpt>
      <trkpt lat="57.9679785" lon="56.1497229">
        <ele>123.1861572</ele>
        <time>2010-06-30T15:49:30Z</time>
      </trkpt>
      <trkpt lat="57.9681656" lon="56.1501859">
        <ele>123.1861572</ele>
        <time>2010-06-30T15:49:34Z</time>
      </trkpt>
      <trkpt lat="57.9682729" lon="56.1504793">
        <ele>122.7054443</ele>
        <time>2010-06-30T15:49:36Z</time>
      </trkpt>
      <trkpt lat="57.9683741" lon="56.1513129">
        <ele>123.6667480</ele>
        <time>2010-06-30T15:49:41Z</time>
      </trkpt>
      <trkpt lat="57.9683989" lon="56.1516974">
        <ele>123.1861572</ele>
        <time>2010-06-30T15:49:43Z</time>
      </trkpt>
      <trkpt lat="57.9686200" lon="56.1527930">
        <ele>123.6667480</ele>
        <time>2010-06-30T15:49:48Z</time>
      </trkpt>
      <trkpt lat="57.9690319" lon="56.1546201">
        <ele>125.1087646</ele>
        <time>2010-06-30T15:49:56Z</time>
      </trkpt>
      <trkpt lat="57.9692415" lon="56.1555447">
        <ele>124.6280518</ele>
        <time>2010-06-30T15:50:01Z</time>
      </trkpt>
      <trkpt lat="57.9694185" lon="56.1562135">
        <ele>125.5893555</ele>
        <time>2010-06-30T15:50:06Z</time>
      </trkpt>
      <trkpt lat="57.9696378" lon="56.1569435">
        <ele>127.9925537</ele>
        <time>2010-06-30T15:50:10Z</time>
      </trkpt>
      <trkpt lat="57.9699235" lon="56.1579219">
        <ele>127.0313721</ele>
        <time>2010-06-30T15:50:14Z</time>
      </trkpt>
      <trkpt lat="57.9704240" lon="56.1595655">
        <ele>129.9152832</ele>
        <time>2010-06-30T15:50:20Z</time>
      </trkpt>
      <trkpt lat="57.9710703" lon="56.1617832">
        <ele>130.3959961</ele>
        <time>2010-06-30T15:50:28Z</time>
      </trkpt>
      <trkpt lat="57.9716021" lon="56.1636875">
        <ele>128.9541016</ele>
        <time>2010-06-30T15:50:35Z</time>
      </trkpt>
      <trkpt lat="57.9721700" lon="56.1656056">
        <ele>129.4346924</ele>
        <time>2010-06-30T15:50:42Z</time>
      </trkpt>
      <trkpt lat="57.9725223" lon="56.1668573">
        <ele>128.4733887</ele>
        <time>2010-06-30T15:50:47Z</time>
      </trkpt>
      <trkpt lat="57.9728347" lon="56.1679287">
        <ele>130.3959961</ele>
        <time>2010-06-30T15:50:52Z</time>
      </trkpt>
      <trkpt lat="57.9729615" lon="56.1683406">
        <ele>130.3959961</ele>
        <time>2010-06-30T15:50:55Z</time>
      </trkpt>
      <trkpt lat="57.9729892" lon="56.1684493">
        <ele>131.8378906</ele>
        <time>2010-06-30T15:50:58Z</time>
      </trkpt>
      <trkpt lat="57.9730242" lon="56.1685623">
        <ele>132.7993164</ele>
        <time>2010-06-30T15:51:09Z</time>
      </trkpt>
      <trkpt lat="57.9731716" lon="56.1690509">
        <ele>132.3186035</ele>
        <time>2010-06-30T15:51:14Z</time>
      </trkpt>
      <trkpt lat="57.9733866" lon="56.1698151">
        <ele>131.8378906</ele>
        <time>2010-06-30T15:51:18Z</time>
      </trkpt>
      <trkpt lat="57.9739114" lon="56.1715863">
        <ele>132.3186035</ele>
        <time>2010-06-30T15:51:26Z</time>
      </trkpt>
      <trkpt lat="57.9741016" lon="56.1722134">
        <ele>132.3186035</ele>
        <time>2010-06-30T15:51:30Z</time>
      </trkpt>
      <trkpt lat="57.9742442" lon="56.1727059">
        <ele>132.7993164</ele>
        <time>2010-06-30T15:51:35Z</time>
      </trkpt>
      <trkpt lat="57.9745056" lon="56.1734397">
        <ele>137.1252441</ele>
        <time>2010-06-30T15:51:42Z</time>
      </trkpt>
      <trkpt lat="57.9746637" lon="56.1739744">
        <ele>135.6831055</ele>
        <time>2010-06-30T15:51:46Z</time>
      </trkpt>
      <trkpt lat="57.9749518" lon="56.1750323">
        <ele>134.7219238</ele>
        <time>2010-06-30T15:51:51Z</time>
      </trkpt>
      <trkpt lat="57.9754923" lon="56.1768716">
        <ele>134.7219238</ele>
        <time>2010-06-30T15:51:58Z</time>
      </trkpt>
      <trkpt lat="57.9760674" lon="56.1788571">
        <ele>133.2799072</ele>
        <time>2010-06-30T15:52:06Z</time>
      </trkpt>
      <trkpt lat="57.9764519" lon="56.1802099">
        <ele>133.7604980</ele>
        <time>2010-06-30T15:52:12Z</time>
      </trkpt>
      <trkpt lat="57.9770033" lon="56.1821856">
        <ele>133.2799072</ele>
        <time>2010-06-30T15:52:20Z</time>
      </trkpt>
      <trkpt lat="57.9773435" lon="56.1832782">
        <ele>136.1639404</ele>
        <time>2010-06-30T15:52:25Z</time>
      </trkpt>
      <trkpt lat="57.9775377" lon="56.1838910">
        <ele>136.1639404</ele>
        <time>2010-06-30T15:52:29Z</time>
      </trkpt>
      <trkpt lat="57.9776112" lon="56.1841866">
        <ele>138.5672607</ele>
        <time>2010-06-30T15:52:33Z</time>
      </trkpt>
      <trkpt lat="57.9776188" lon="56.1841866">
        <ele>138.0865479</ele>
        <time>2010-06-30T15:52:38Z</time>
      </trkpt>
      <trkpt lat="57.9776603" lon="56.1843491">
        <ele>138.0865479</ele>
        <time>2010-06-30T15:52:41Z</time>
      </trkpt>
      <trkpt lat="57.9777650" lon="56.1847486">
        <ele>138.0865479</ele>
        <time>2010-06-30T15:52:46Z</time>
      </trkpt>
      <trkpt lat="57.9778370" lon="56.1849390">
        <ele>139.0478516</ele>
        <time>2010-06-30T15:52:48Z</time>
      </trkpt>
      <trkpt lat="57.9780680" lon="56.1857276">
        <ele>139.5284424</ele>
        <time>2010-06-30T15:52:53Z</time>
      </trkpt>
      <trkpt lat="57.9784333" lon="56.1869794">
        <ele>139.5284424</ele>
        <time>2010-06-30T15:53:00Z</time>
      </trkpt>
      <trkpt lat="57.9784401" lon="56.1872842">
        <ele>141.9317627</ele>
        <time>2010-06-30T15:53:03Z</time>
      </trkpt>
      <trkpt lat="57.9782494" lon="56.1874392">
        <ele>144.8157959</ele>
        <time>2010-06-30T15:53:07Z</time>
      </trkpt>
      <trkpt lat="57.9779806" lon="56.1875899">
        <ele>146.2578125</ele>
        <time>2010-06-30T15:53:13Z</time>
      </trkpt>
      <trkpt lat="57.9779583" lon="56.1876189">
        <ele>148.1804199</ele>
        <time>2010-06-30T15:53:17Z</time>
      </trkpt>
      <trkpt lat="57.9779562" lon="56.1876223">
        <ele>148.6610107</ele>
        <time>2010-06-30T15:54:34Z</time>
      </trkpt>
    </trkseg>
  </trk>

</gpx>
